createdAt,value
2024-01-03T00:05:38.852Z,100.00
2024-01-03T00:20:44.099Z,100.00
2024-01-03T00:35:47.805Z,100.00
2024-01-03T00:50:51.615Z,100.00
2024-01-03T01:05:55.348Z,100.00
2024-01-03T01:21:00.040Z,100.00
2024-01-03T01:36:03.570Z,100.00
2024-01-03T01:51:07.105Z,100.00
2024-01-03T02:06:11.063Z,100.00
2024-01-03T02:21:16.898Z,100.00
2024-01-03T02:36:21.497Z,100.00
2024-01-03T02:51:24.849Z,100.00
2024-01-03T03:06:28.543Z,100.00
2024-01-03T03:21:32.182Z,100.00
2024-01-03T03:36:35.891Z,100.00
2024-01-03T03:51:39.186Z,100.00
2024-01-03T04:06:43.769Z,100.00
2024-01-03T04:21:48.444Z,100.00
2024-01-03T04:36:52.234Z,100.00
2024-01-03T04:51:55.871Z,100.00
2024-01-03T05:06:59.190Z,100.00
2024-01-03T05:22:02.867Z,100.00
2024-01-03T05:37:06.361Z,100.00
2024-01-03T05:52:09.833Z,100.00
2024-01-03T06:07:14.557Z,100.00
2024-01-03T06:22:18.232Z,100.00
2024-01-03T06:37:21.597Z,100.00
2024-01-03T06:52:24.841Z,100.00
2024-01-03T07:07:29.582Z,100.00
2024-01-03T07:22:33.170Z,100.00
2024-01-03T07:37:37.053Z,100.00
2024-01-03T07:52:40.642Z,100.00
2024-01-03T08:07:44.938Z,100.00
2024-01-03T08:22:48.575Z,100.00
2024-01-03T08:37:53.166Z,100.00
2024-01-03T08:52:57.048Z,100.00
2024-01-03T09:08:03.812Z,100.00
2024-01-03T09:23:09.860Z,99.88
2024-01-03T09:38:14.943Z,99.47
2024-01-03T09:53:21.034Z,98.93
2024-01-03T10:08:27.296Z,98.40
2024-01-03T10:23:32.592Z,97.84
2024-01-03T10:38:38.379Z,97.72
2024-01-03T10:53:45.612Z,97.25
2024-01-03T11:08:55.181Z,96.86
2024-01-03T11:23:59.022Z,96.53
2024-01-03T11:39:03.342Z,96.72
2024-01-03T11:54:08.290Z,97.07
2024-01-03T12:09:23.644Z,96.15
2024-01-03T12:24:42.072Z,95.84
2024-01-03T12:39:48.685Z,95.63
2024-01-03T12:54:52.451Z,95.57
2024-01-03T13:09:55.910Z,95.87
2024-01-03T13:24:59.626Z,95.90
2024-01-03T13:40:03.604Z,96.20
2024-01-03T13:55:07.440Z,96.25
2024-01-03T14:10:12.827Z,95.64
2024-01-03T14:25:18.783Z,95.00
2024-01-03T14:40:30.211Z,94.95
2024-01-03T14:55:35.188Z,95.23
2024-01-03T15:10:40.317Z,95.35
2024-01-03T15:25:44.019Z,95.35
2024-01-03T15:40:49.920Z,95.64
2024-01-03T15:55:53.830Z,95.27
2024-01-03T16:10:57.356Z,95.24
2024-01-03T16:26:02.654Z,95.42
2024-01-03T16:41:07.649Z,95.62
2024-01-03T16:56:12.181Z,95.84
2024-01-03T17:11:24.158Z,95.49
2024-01-03T17:26:31.101Z,95.89
2024-01-03T17:41:37.416Z,95.63
2024-01-03T17:56:42.499Z,95.97
2024-01-03T18:11:46.383Z,96.17
2024-01-03T18:26:50.269Z,96.13
2024-01-03T18:41:55.346Z,96.38
2024-01-03T18:56:59.501Z,96.55
2024-01-03T19:12:04.411Z,96.95
2024-01-03T19:27:09.140Z,97.10
2024-01-03T19:42:13.506Z,96.67
2024-01-03T19:57:19.500Z,96.79
2024-01-03T20:12:23.250Z,96.54
2024-01-03T20:27:27.057Z,96.64
2024-01-03T20:42:30.549Z,97.01
2024-01-03T20:57:36.101Z,96.38
2024-01-03T21:12:39.756Z,96.30
2024-01-03T21:27:49.253Z,96.55
2024-01-03T21:42:55.197Z,96.55
2024-01-03T21:57:59.715Z,96.69
2024-01-03T22:13:05.752Z,97.25
2024-01-03T22:28:10.534Z,97.38
2024-01-03T22:43:14.270Z,96.77
2024-01-03T22:58:17.905Z,96.91
2024-01-03T23:13:21.277Z,97.29
2024-01-03T23:28:26.427Z,97.06
2024-01-03T23:43:30.262Z,97.06
2024-01-03T23:58:33.972Z,96.99
